sensor_id;sensor_type;location;lat;lon;timestamp;temperature;humidity
78550;DHT22;68091;52.130;5.570;2023-02-28T00:01:09;0.80;86.50
78550;DHT22;68091;52.130;5.570;2023-02-28T00:03:35;0.90;86.00
78550;DHT22;68091;52.130;5.570;2023-02-28T00:06:03;1.00;85.70
78550;DHT22;68091;52.130;5.570;2023-02-28T00:08:29;1.00;85.30
78550;DHT22;68091;52.130;5.570;2023-02-28T00:10:55;1.00;85.40
78550;DHT22;68091;52.130;5.570;2023-02-28T00:13:21;1.00;85.30
78550;DHT22;68091;52.130;5.570;2023-02-28T00:15:47;1.00;85.50
78550;DHT22;68091;52.130;5.570;2023-02-28T00:18:12;1.00;85.80
78550;DHT22;68091;52.130;5.570;2023-02-28T00:20:39;1.30;86.10
78550;DHT22;68091;52.130;5.570;2023-02-28T00:23:04;1.20;85.40
78550;DHT22;68091;52.130;5.570;2023-02-28T00:25:30;1.40;85.20
78550;DHT22;68091;52.130;5.570;2023-02-28T00:27:56;1.40;84.90
78550;DHT22;68091;52.130;5.570;2023-02-28T00:30:23;1.50;84.80
78550;DHT22;68091;52.130;5.570;2023-02-28T00:32:49;1.50;84.70
78550;DHT22;68091;52.130;5.570;2023-02-28T00:35:15;1.60;84.50
78550;DHT22;68091;52.130;5.570;2023-02-28T00:37:42;1.60;84.20
78550;DHT22;68091;52.130;5.570;2023-02-28T00:40:08;1.60;84.40
78550;DHT22;68091;52.130;5.570;2023-02-28T00:42:35;1.70;84.50
78550;DHT22;68091;52.130;5.570;2023-02-28T00:45:02;1.70;84.40
78550;DHT22;68091;52.130;5.570;2023-02-28T00:47:29;1.70;84.30
78550;DHT22;68091;52.130;5.570;2023-02-28T00:49:55;1.80;84.40
78550;DHT22;68091;52.130;5.570;2023-02-28T00:52:21;1.80;84.30
78550;DHT22;68091;52.130;5.570;2023-02-28T00:54:47;1.80;84.30
78550;DHT22;68091;52.130;5.570;2023-02-28T00:57:12;1.90;84.20
78550;DHT22;68091;52.130;5.570;2023-02-28T00:59:38;1.90;84.10
78550;DHT22;68091;52.130;5.570;2023-02-28T01:02:04;1.90;84.00
78550;DHT22;68091;52.130;5.570;2023-02-28T01:04:30;2.00;84.60
78550;DHT22;68091;52.130;5.570;2023-02-28T01:06:56;2.10;83.40
78550;DHT22;68091;52.130;5.570;2023-02-28T01:09:22;2.10;83.30
78550;DHT22;68091;52.130;5.570;2023-02-28T01:11:47;2.10;83.20
78550;DHT22;68091;52.130;5.570;2023-02-28T01:14:15;2.10;83.40
78550;DHT22;68091;52.130;5.570;2023-02-28T01:16:41;2.20;83.30
78550;DHT22;68091;52.130;5.570;2023-02-28T01:19:07;2.30;83.20
78550;DHT22;68091;52.130;5.570;2023-02-28T01:21:33;2.20;82.90
78550;DHT22;68091;52.130;5.570;2023-02-28T01:24:01;2.30;83.20
78550;DHT22;68091;52.130;5.570;2023-02-28T01:26:27;2.30;82.90
78550;DHT22;68091;52.130;5.570;2023-02-28T01:28:53;2.40;82.70
78550;DHT22;68091;52.130;5.570;2023-02-28T01:31:20;2.30;82.90
78550;DHT22;68091;52.130;5.570;2023-02-28T01:33:47;2.60;82.90
78550;DHT22;68091;52.130;5.570;2023-02-28T01:36:15;2.50;82.70
78550;DHT22;68091;52.130;5.570;2023-02-28T01:38:42;2.40;82.80
78550;DHT22;68091;52.130;5.570;2023-02-28T01:41:32;2.30;82.80
78550;DHT22;68091;52.130;5.570;2023-02-28T01:44:55;2.40;82.70
78550;DHT22;68091;52.130;5.570;2023-02-28T01:46:55;2.50;82.40
78550;DHT22;68091;52.130;5.570;2023-02-28T01:49:21;2.40;82.50
78550;DHT22;68091;52.130;5.570;2023-02-28T01:51:52;2.30;82.60
78550;DHT22;68091;52.130;5.570;2023-02-28T01:54:23;2.40;82.90
78550;DHT22;68091;52.130;5.570;2023-02-28T01:57:09;2.70;82.80
78550;DHT22;68091;52.130;5.570;2023-02-28T01:59:43;2.40;82.50
78550;DHT22;68091;52.130;5.570;2023-02-28T02:02:15;2.50;82.40
78550;DHT22;68091;52.130;5.570;2023-02-28T02:04:50;2.50;82.20
78550;DHT22;68091;52.130;5.570;2023-02-28T02:07:17;2.50;82.30
78550;DHT22;68091;52.130;5.570;2023-02-28T02:09:46;2.50;82.40
78550;DHT22;68091;52.130;5.570;2023-02-28T02:12:37;2.50;82.50
78550;DHT22;68091;52.130;5.570;2023-02-28T02:15:12;2.50;82.30
78550;DHT22;68091;52.130;5.570;2023-02-28T02:17:52;2.40;82.40
78550;DHT22;68091;52.130;5.570;2023-02-28T02:26:04;2.40;82.30
78550;DHT22;68091;52.130;5.570;2023-02-28T02:28:48;2.40;82.50
78550;DHT22;68091;52.130;5.570;2023-02-28T02:43:13;2.50;82.60
78550;DHT22;68091;52.130;5.570;2023-02-28T02:45:25;2.50;82.50
78550;DHT22;68091;52.130;5.570;2023-02-28T02:47:53;2.50;82.60
78550;DHT22;68091;52.130;5.570;2023-02-28T02:50:26;2.50;82.50
78550;DHT22;68091;52.130;5.570;2023-02-28T02:52:57;2.50;82.60
78550;DHT22;68091;52.130;5.570;2023-02-28T02:55:25;2.40;82.50
78550;DHT22;68091;52.130;5.570;2023-02-28T02:57:58;2.50;82.80
78550;DHT22;68091;52.130;5.570;2023-02-28T03:00:42;2.50;82.70
78550;DHT22;68091;52.130;5.570;2023-02-28T03:03:09;2.50;82.50
78550;DHT22;68091;52.130;5.570;2023-02-28T03:05:42;2.60;82.20
78550;DHT22;68091;52.130;5.570;2023-02-28T03:08:10;2.50;82.20
78550;DHT22;68091;52.130;5.570;2023-02-28T03:10:41;2.50;82.30
78550;DHT22;68091;52.130;5.570;2023-02-28T03:26:27;2.60;82.10
78550;DHT22;68091;52.130;5.570;2023-02-28T03:29:02;2.60;82.30
78550;DHT22;68091;52.130;5.570;2023-02-28T03:31:52;2.60;82.30
78550;DHT22;68091;52.130;5.570;2023-02-28T03:34:26;2.50;82.80
78550;DHT22;68091;52.130;5.570;2023-02-28T03:37:00;2.50;83.20
78550;DHT22;68091;52.130;5.570;2023-02-28T03:39:37;2.50;83.60
78550;DHT22;68091;52.130;5.570;2023-02-28T03:42:13;2.50;83.60
78550;DHT22;68091;52.130;5.570;2023-02-28T03:44:46;2.40;83.70
78550;DHT22;68091;52.130;5.570;2023-02-28T03:47:45;2.40;84.20
78550;DHT22;68091;52.130;5.570;2023-02-28T03:50:08;2.40;84.20
78550;DHT22;68091;52.130;5.570;2023-02-28T03:52:40;2.30;84.10
78550;DHT22;68091;52.130;5.570;2023-02-28T03:55:10;2.40;83.90
78550;DHT22;68091;52.130;5.570;2023-02-28T04:00:42;2.40;83.50
78550;DHT22;68091;52.130;5.570;2023-02-28T04:03:09;2.30;83.70
78550;DHT22;68091;52.130;5.570;2023-02-28T04:05:50;2.40;83.30
78550;DHT22;68091;52.130;5.570;2023-02-28T04:08:17;2.30;81.40
78550;DHT22;68091;52.130;5.570;2023-02-28T04:10:45;2.30;81.80
78550;DHT22;68091;52.130;5.570;2023-02-28T04:13:13;2.20;81.60
78550;DHT22;68091;52.130;5.570;2023-02-28T04:15:39;2.20;81.40
78550;DHT22;68091;52.130;5.570;2023-02-28T04:18:05;2.10;81.10
78550;DHT22;68091;52.130;5.570;2023-02-28T04:20:31;2.10;80.30
78550;DHT22;68091;52.130;5.570;2023-02-28T04:22:57;2.10;80.50
78550;DHT22;68091;52.130;5.570;2023-02-28T04:25:23;2.30;80.30
78550;DHT22;68091;52.130;5.570;2023-02-28T04:27:48;2.30;79.10
78550;DHT22;68091;52.130;5.570;2023-02-28T04:30:14;2.10;79.00
78550;DHT22;68091;52.130;5.570;2023-02-28T04:32:40;1.90;77.80
78550;DHT22;68091;52.130;5.570;2023-02-28T04:35:06;1.90;77.90
78550;DHT22;68091;52.130;5.570;2023-02-28T04:37:32;1.90;78.00
78550;DHT22;68091;52.130;5.570;2023-02-28T04:40:00;1.90;78.90
78550;DHT22;68091;52.130;5.570;2023-02-28T04:42:26;1.90;78.60
78550;DHT22;68091;52.130;5.570;2023-02-28T04:44:52;1.80;78.70
78550;DHT22;68091;52.130;5.570;2023-02-28T04:47:18;1.80;78.80
78550;DHT22;68091;52.130;5.570;2023-02-28T04:49:44;1.80;78.70
78550;DHT22;68091;52.130;5.570;2023-02-28T04:52:10;1.70;78.80
78550;DHT22;68091;52.130;5.570;2023-02-28T04:54:35;1.60;79.10
78550;DHT22;68091;52.130;5.570;2023-02-28T04:57:03;1.60;79.10
78550;DHT22;68091;52.130;5.570;2023-02-28T04:59:29;1.60;79.50
78550;DHT22;68091;52.130;5.570;2023-02-28T05:01:55;1.60;79.60
78550;DHT22;68091;52.130;5.570;2023-02-28T05:04:21;1.50;80.40
78550;DHT22;68091;52.130;5.570;2023-02-28T05:06:47;1.50;80.30
78550;DHT22;68091;52.130;5.570;2023-02-28T05:09:13;1.40;81.00
78550;DHT22;68091;52.130;5.570;2023-02-28T05:11:45;1.40;81.10
78550;DHT22;68091;52.130;5.570;2023-02-28T05:14:13;1.40;81.90
78550;DHT22;68091;52.130;5.570;2023-02-28T05:16:39;1.40;81.80
78550;DHT22;68091;52.130;5.570;2023-02-28T05:19:05;1.40;82.30
78550;DHT22;68091;52.130;5.570;2023-02-28T05:21:36;1.60;82.20
78550;DHT22;68091;52.130;5.570;2023-02-28T05:24:11;1.50;82.30
78550;DHT22;68091;52.130;5.570;2023-02-28T05:26:39;1.50;82.30
78550;DHT22;68091;52.130;5.570;2023-02-28T05:29:06;1.40;81.80
78550;DHT22;68091;52.130;5.570;2023-02-28T05:31:32;1.50;81.90
78550;DHT22;68091;52.130;5.570;2023-02-28T05:33:58;1.50;82.20
78550;DHT22;68091;52.130;5.570;2023-02-28T05:36:25;1.60;82.20
78550;DHT22;68091;52.130;5.570;2023-02-28T05:38:51;1.60;82.00
78550;DHT22;68091;52.130;5.570;2023-02-28T05:41:18;1.60;81.50
78550;DHT22;68091;52.130;5.570;2023-02-28T05:43:45;1.70;81.20
78550;DHT22;68091;52.130;5.570;2023-02-28T05:46:12;1.70;81.30
78550;DHT22;68091;52.130;5.570;2023-02-28T05:48:39;1.70;80.80
78550;DHT22;68091;52.130;5.570;2023-02-28T05:51:07;1.70;81.00
78550;DHT22;68091;52.130;5.570;2023-02-28T05:53:33;1.70;81.10
78550;DHT22;68091;52.130;5.570;2023-02-28T05:55:59;1.70;81.10
78550;DHT22;68091;52.130;5.570;2023-02-28T05:58:25;1.70;81.40
78550;DHT22;68091;52.130;5.570;2023-02-28T06:00:54;1.60;81.30
78550;DHT22;68091;52.130;5.570;2023-02-28T06:03:20;1.60;82.10
78550;DHT22;68091;52.130;5.570;2023-02-28T06:05:46;1.50;82.70
78550;DHT22;68091;52.130;5.570;2023-02-28T06:08:12;1.70;82.50
78550;DHT22;68091;52.130;5.570;2023-02-28T06:10:38;1.70;82.00
78550;DHT22;68091;52.130;5.570;2023-02-28T06:13:04;1.70;81.70
78550;DHT22;68091;52.130;5.570;2023-02-28T06:15:31;1.70;81.70
78550;DHT22;68091;52.130;5.570;2023-02-28T06:17:57;1.70;82.10
78550;DHT22;68091;52.130;5.570;2023-02-28T06:20:25;1.70;82.40
78550;DHT22;68091;52.130;5.570;2023-02-28T06:22:55;1.70;82.00
78550;DHT22;68091;52.130;5.570;2023-02-28T06:25:21;1.60;82.20
78550;DHT22;68091;52.130;5.570;2023-02-28T06:27:47;1.70;82.20
78550;DHT22;68091;52.130;5.570;2023-02-28T06:30:14;1.60;82.60
78550;DHT22;68091;52.130;5.570;2023-02-28T06:32:40;1.60;82.70
78550;DHT22;68091;52.130;5.570;2023-02-28T06:35:06;1.60;83.30
78550;DHT22;68091;52.130;5.570;2023-02-28T06:37:38;1.60;83.40
78550;DHT22;68091;52.130;5.570;2023-02-28T06:40:04;1.70;83.00
78550;DHT22;68091;52.130;5.570;2023-02-28T06:42:32;1.60;83.10
78550;DHT22;68091;52.130;5.570;2023-02-28T06:44:58;1.70;83.50
78550;DHT22;68091;52.130;5.570;2023-02-28T06:47:24;1.60;83.40
78550;DHT22;68091;52.130;5.570;2023-02-28T06:49:50;1.60;83.80
78550;DHT22;68091;52.130;5.570;2023-02-28T06:52:16;1.60;83.80
78550;DHT22;68091;52.130;5.570;2023-02-28T06:54:42;1.70;83.60
78550;DHT22;68091;52.130;5.570;2023-02-28T06:57:08;1.70;83.70
78550;DHT22;68091;52.130;5.570;2023-02-28T06:59:34;1.70;83.80
78550;DHT22;68091;52.130;5.570;2023-02-28T07:02:00;1.80;83.40
78550;DHT22;68091;52.130;5.570;2023-02-28T07:04:27;1.80;83.50
78550;DHT22;68091;52.130;5.570;2023-02-28T07:06:54;1.80;83.70
78550;DHT22;68091;52.130;5.570;2023-02-28T07:09:22;2.00;83.70
78550;DHT22;68091;52.130;5.570;2023-02-28T07:11:48;1.90;83.60
78550;DHT22;68091;52.130;5.570;2023-02-28T07:14:14;1.90;83.80
78550;DHT22;68091;52.130;5.570;2023-02-28T07:16:40;2.00;83.10
78550;DHT22;68091;52.130;5.570;2023-02-28T07:19:06;1.90;83.40
78550;DHT22;68091;52.130;5.570;2023-02-28T07:21:31;1.90;83.80
78550;DHT22;68091;52.130;5.570;2023-02-28T07:23:57;1.90;83.10
78550;DHT22;68091;52.130;5.570;2023-02-28T07:26:23;1.90;83.30
78550;DHT22;68091;52.130;5.570;2023-02-28T07:28:49;1.90;83.80
78550;DHT22;68091;52.130;5.570;2023-02-28T07:31:16;1.90;84.10
78550;DHT22;68091;52.130;5.570;2023-02-28T07:33:45;1.70;83.10
78550;DHT22;68091;52.130;5.570;2023-02-28T07:36:16;2.20;82.50
78550;DHT22;68091;52.130;5.570;2023-02-28T07:38:43;2.20;82.30
78550;DHT22;68091;52.130;5.570;2023-02-28T07:41:10;2.30;82.00
78550;DHT22;68091;52.130;5.570;2023-02-28T07:43:36;2.20;81.70
78550;DHT22;68091;52.130;5.570;2023-02-28T07:46:07;2.40;81.40
78550;DHT22;68091;52.130;5.570;2023-02-28T07:48:34;2.40;81.20
78550;DHT22;68091;52.130;5.570;2023-02-28T07:51:00;2.50;81.30
78550;DHT22;68091;52.130;5.570;2023-02-28T07:53:26;2.50;81.30
78550;DHT22;68091;52.130;5.570;2023-02-28T07:56:02;2.50;81.50
78550;DHT22;68091;52.130;5.570;2023-02-28T07:58:29;2.40;81.00
78550;DHT22;68091;52.130;5.570;2023-02-28T08:00:55;2.50;80.80
78550;DHT22;68091;52.130;5.570;2023-02-28T08:03:22;2.60;80.30
78550;DHT22;68091;52.130;5.570;2023-02-28T08:05:52;2.90;78.50
78550;DHT22;68091;52.130;5.570;2023-02-28T08:08:20;2.70;77.10
78550;DHT22;68091;52.130;5.570;2023-02-28T08:10:46;2.80;76.80
78550;DHT22;68091;52.130;5.570;2023-02-28T08:13:12;2.90;75.60
78550;DHT22;68091;52.130;5.570;2023-02-28T08:15:41;2.90;75.90
78550;DHT22;68091;52.130;5.570;2023-02-28T08:18:14;2.90;74.60
78550;DHT22;68091;52.130;5.570;2023-02-28T08:20:43;2.80;75.20
78550;DHT22;68091;52.130;5.570;2023-02-28T08:23:11;2.80;73.60
78550;DHT22;68091;52.130;5.570;2023-02-28T08:25:37;2.70;74.10
78550;DHT22;68091;52.130;5.570;2023-02-28T08:28:03;2.80;72.40
78550;DHT22;68091;52.130;5.570;2023-02-28T08:30:29;2.70;72.90
78550;DHT22;68091;52.130;5.570;2023-02-28T08:32:55;2.90;73.40
78550;DHT22;68091;52.130;5.570;2023-02-28T08:35:21;2.90;73.00
78550;DHT22;68091;52.130;5.570;2023-02-28T08:37:50;3.10;71.20
78550;DHT22;68091;52.130;5.570;2023-02-28T08:40:17;3.00;69.90
78550;DHT22;68091;52.130;5.570;2023-02-28T08:42:46;3.10;71.00
78550;DHT22;68091;52.130;5.570;2023-02-28T08:45:13;3.10;69.40
78550;DHT22;68091;52.130;5.570;2023-02-28T08:47:39;3.30;68.30
78550;DHT22;68091;52.130;5.570;2023-02-28T08:50:06;3.50;66.70
78550;DHT22;68091;52.130;5.570;2023-02-28T08:52:32;3.60;64.90
78550;DHT22;68091;52.130;5.570;2023-02-28T08:54:58;3.80;63.00
78550;DHT22;68091;52.130;5.570;2023-02-28T08:57:24;3.90;62.10
78550;DHT22;68091;52.130;5.570;2023-02-28T08:59:57;4.10;61.00
78550;DHT22;68091;52.130;5.570;2023-02-28T09:02:23;4.20;58.20
78550;DHT22;68091;52.130;5.570;2023-02-28T09:04:49;4.40;57.80
78550;DHT22;68091;52.130;5.570;2023-02-28T09:07:17;4.40;57.90
78550;DHT22;68091;52.130;5.570;2023-02-28T09:09:43;4.30;54.50
78550;DHT22;68091;52.130;5.570;2023-02-28T09:12:24;4.10;53.20
78550;DHT22;68091;52.130;5.570;2023-02-28T09:14:50;4.10;53.40
78550;DHT22;68091;52.130;5.570;2023-02-28T09:17:16;4.20;53.20
78550;DHT22;68091;52.130;5.570;2023-02-28T09:19:52;4.10;52.70
78550;DHT22;68091;52.130;5.570;2023-02-28T09:22:20;4.20;52.80
78550;DHT22;68091;52.130;5.570;2023-02-28T09:24:46;4.30;51.90
78550;DHT22;68091;52.130;5.570;2023-02-28T09:27:12;4.60;50.60
78550;DHT22;68091;52.130;5.570;2023-02-28T09:29:47;4.70;50.80
78550;DHT22;68091;52.130;5.570;2023-02-28T09:32:16;4.70;48.80
78550;DHT22;68091;52.130;5.570;2023-02-28T09:34:43;4.70;49.50
78550;DHT22;68091;52.130;5.570;2023-02-28T09:37:09;4.90;51.30
78550;DHT22;68091;52.130;5.570;2023-02-28T09:39:37;5.00;49.60
78550;DHT22;68091;52.130;5.570;2023-02-28T09:42:04;5.00;48.80
78550;DHT22;68091;52.130;5.570;2023-02-28T09:44:48;4.90;51.00
78550;DHT22;68091;52.130;5.570;2023-02-28T09:47:33;4.90;49.80
78550;DHT22;68091;52.130;5.570;2023-02-28T09:52:38;5.80;48.30
78550;DHT22;68091;52.130;5.570;2023-02-28T09:58:01;6.10;46.80
78550;DHT22;68091;52.130;5.570;2023-02-28T10:00:33;6.00;46.10
78550;DHT22;68091;52.130;5.570;2023-02-28T10:05:30;5.50;47.10
78550;DHT22;68091;52.130;5.570;2023-02-28T10:10:46;5.10;46.20
78550;DHT22;68091;52.130;5.570;2023-02-28T10:16:29;5.30;45.20
78550;DHT22;68091;52.130;5.570;2023-02-28T10:18:57;5.50;45.50
78550;DHT22;68091;52.130;5.570;2023-02-28T10:21:47;5.60;46.20
78550;DHT22;68091;52.130;5.570;2023-02-28T10:24:35;6.00;45.50
78550;DHT22;68091;52.130;5.570;2023-02-28T10:27:18;5.80;45.80
78550;DHT22;68091;52.130;5.570;2023-02-28T10:29:46;5.90;46.10
78550;DHT22;68091;52.130;5.570;2023-02-28T10:32:26;5.90;45.90
78550;DHT22;68091;52.130;5.570;2023-02-28T10:35:16;6.10;45.50
78550;DHT22;68091;52.130;5.570;2023-02-28T10:37:45;6.10;43.10
78550;DHT22;68091;52.130;5.570;2023-02-28T10:40:35;6.20;45.10
78550;DHT22;68091;52.130;5.570;2023-02-28T10:43:07;6.40;44.10
78550;DHT22;68091;52.130;5.570;2023-02-28T10:46:13;6.30;44.00
78550;DHT22;68091;52.130;5.570;2023-02-28T10:49:14;6.40;43.40
78550;DHT22;68091;52.130;5.570;2023-02-28T10:51:45;6.50;43.00
78550;DHT22;68091;52.130;5.570;2023-02-28T10:54:20;6.40;43.00
78550;DHT22;68091;52.130;5.570;2023-02-28T10:57:16;6.40;42.70
78550;DHT22;68091;52.130;5.570;2023-02-28T10:59:43;6.30;43.00
78550;DHT22;68091;52.130;5.570;2023-02-28T11:02:30;6.50;43.50
78550;DHT22;68091;52.130;5.570;2023-02-28T11:04:56;6.50;44.10
78550;DHT22;68091;52.130;5.570;2023-02-28T11:07:23;6.40;43.40
78550;DHT22;68091;52.130;5.570;2023-02-28T11:09:52;6.50;42.80
78550;DHT22;68091;52.130;5.570;2023-02-28T11:12:38;6.70;43.00
78550;DHT22;68091;52.130;5.570;2023-02-28T11:17:44;6.90;43.20
78550;DHT22;68091;52.130;5.570;2023-02-28T11:20:22;6.90;42.30
78550;DHT22;68091;52.130;5.570;2023-02-28T11:22:56;7.10;42.70
78550;DHT22;68091;52.130;5.570;2023-02-28T11:25:31;7.10;42.50
78550;DHT22;68091;52.130;5.570;2023-02-28T11:27:59;7.10;41.80
78550;DHT22;68091;52.130;5.570;2023-02-28T11:30:38;6.90;43.10
78550;DHT22;68091;52.130;5.570;2023-02-28T11:35:52;7.00;42.30
78550;DHT22;68091;52.130;5.570;2023-02-28T11:38:19;7.00;42.30
78550;DHT22;68091;52.130;5.570;2023-02-28T11:40:59;6.90;42.00
78550;DHT22;68091;52.130;5.570;2023-02-28T11:52:15;7.00;42.10
78550;DHT22;68091;52.130;5.570;2023-02-28T11:55:08;7.00;42.60
78550;DHT22;68091;52.130;5.570;2023-02-28T12:05:49;6.80;42.90
78550;DHT22;68091;52.130;5.570;2023-02-28T12:20:24;7.00;41.80
78550;DHT22;68091;52.130;5.570;2023-02-28T12:23:10;6.90;42.00
78550;DHT22;68091;52.130;5.570;2023-02-28T12:28:17;7.00;41.40
78550;DHT22;68091;52.130;5.570;2023-02-28T12:31:00;6.80;41.60
78550;DHT22;68091;52.130;5.570;2023-02-28T12:33:36;6.90;43.20
78550;DHT22;68091;52.130;5.570;2023-02-28T12:36:17;6.90;41.60
78550;DHT22;68091;52.130;5.570;2023-02-28T12:38:48;6.90;42.50
78550;DHT22;68091;52.130;5.570;2023-02-28T12:43:55;7.10;42.20
78550;DHT22;68091;52.130;5.570;2023-02-28T12:46:30;7.00;42.50
78550;DHT22;68091;52.130;5.570;2023-02-28T12:49:00;7.00;42.60
78550;DHT22;68091;52.130;5.570;2023-02-28T12:51:28;7.20;42.10
78550;DHT22;68091;52.130;5.570;2023-02-28T12:54:19;7.30;43.20
78550;DHT22;68091;52.130;5.570;2023-02-28T12:59:31;7.50;40.50
78550;DHT22;68091;52.130;5.570;2023-02-28T13:10:19;7.60;41.20
78550;DHT22;68091;52.130;5.570;2023-02-28T13:12:53;7.70;40.90
78550;DHT22;68091;52.130;5.570;2023-02-28T13:15:26;7.80;40.50
78550;DHT22;68091;52.130;5.570;2023-02-28T13:17:56;8.00;40.30
78550;DHT22;68091;52.130;5.570;2023-02-28T13:20:34;8.20;40.30
78550;DHT22;68091;52.130;5.570;2023-02-28T13:23:00;8.20;40.10
78550;DHT22;68091;52.130;5.570;2023-02-28T13:28:01;8.30;39.60
78550;DHT22;68091;52.130;5.570;2023-02-28T13:38:52;9.40;35.60
78550;DHT22;68091;52.130;5.570;2023-02-28T13:44:09;9.70;36.10
78550;DHT22;68091;52.130;5.570;2023-02-28T13:59:54;9.80;35.30
78550;DHT22;68091;52.130;5.570;2023-02-28T14:02:42;9.30;37.50
78550;DHT22;68091;52.130;5.570;2023-02-28T14:05:18;8.90;37.00
78550;DHT22;68091;52.130;5.570;2023-02-28T14:07:51;8.40;39.20
78550;DHT22;68091;52.130;5.570;2023-02-28T14:10:31;8.10;39.50
78550;DHT22;68091;52.130;5.570;2023-02-28T14:13:01;8.20;39.10
78550;DHT22;68091;52.130;5.570;2023-02-28T14:18:02;7.90;39.20
78550;DHT22;68091;52.130;5.570;2023-02-28T14:20:34;7.70;39.00
78550;DHT22;68091;52.130;5.570;2023-02-28T14:26:30;7.50;40.60
78550;DHT22;68091;52.130;5.570;2023-02-28T14:32:02;7.50;40.50
78550;DHT22;68091;52.130;5.570;2023-02-28T14:37:04;7.40;41.10
78550;DHT22;68091;52.130;5.570;2023-02-28T14:39:34;7.30;40.60
78550;DHT22;68091;52.130;5.570;2023-02-28T14:42:02;7.20;40.30
78550;DHT22;68091;52.130;5.570;2023-02-28T14:44:32;7.20;40.90
78550;DHT22;68091;52.130;5.570;2023-02-28T14:47:02;7.20;40.40
78550;DHT22;68091;52.130;5.570;2023-02-28T14:49:51;7.20;40.90
78550;DHT22;68091;52.130;5.570;2023-02-28T14:57:31;7.40;41.00
78550;DHT22;68091;52.130;5.570;2023-02-28T15:02:38;7.10;41.30
78550;DHT22;68091;52.130;5.570;2023-02-28T15:07:42;7.30;41.00
78550;DHT22;68091;52.130;5.570;2023-02-28T15:10:26;7.30;41.00
78550;DHT22;68091;52.130;5.570;2023-02-28T15:13:15;7.40;41.10
78550;DHT22;68091;52.130;5.570;2023-02-28T15:19:19;7.20;40.80
78550;DHT22;68091;52.130;5.570;2023-02-28T15:21:26;7.30;41.20
78550;DHT22;68091;52.130;5.570;2023-02-28T15:23:54;7.20;41.20
78550;DHT22;68091;52.130;5.570;2023-02-28T15:26:23;7.20;41.10
78550;DHT22;68091;52.130;5.570;2023-02-28T15:29:10;7.20;40.40
78550;DHT22;68091;52.130;5.570;2023-02-28T15:31:44;7.30;40.20
78550;DHT22;68091;52.130;5.570;2023-02-28T15:34:24;7.30;40.50
78550;DHT22;68091;52.130;5.570;2023-02-28T15:36:52;7.10;41.10
78550;DHT22;68091;52.130;5.570;2023-02-28T15:39:27;7.10;40.70
78550;DHT22;68091;52.130;5.570;2023-02-28T15:42:18;7.00;39.70
78550;DHT22;68091;52.130;5.570;2023-02-28T15:44:44;6.80;40.00
78550;DHT22;68091;52.130;5.570;2023-02-28T15:47:20;6.70;40.30
78550;DHT22;68091;52.130;5.570;2023-02-28T15:49:52;6.60;41.30
78550;DHT22;68091;52.130;5.570;2023-02-28T15:55:31;6.50;40.30
78550;DHT22;68091;52.130;5.570;2023-02-28T15:58:00;6.50;40.30
78550;DHT22;68091;52.130;5.570;2023-02-28T16:00:29;6.40;41.80
78550;DHT22;68091;52.130;5.570;2023-02-28T16:02:55;6.30;41.10
78550;DHT22;68091;52.130;5.570;2023-02-28T16:05:26;6.30;42.00
78550;DHT22;68091;52.130;5.570;2023-02-28T16:08:14;6.30;42.70
78550;DHT22;68091;52.130;5.570;2023-02-28T16:10:40;6.40;43.80
78550;DHT22;68091;52.130;5.570;2023-02-28T16:13:08;6.40;42.50
78550;DHT22;68091;52.130;5.570;2023-02-28T16:15:39;6.20;43.20
78550;DHT22;68091;52.130;5.570;2023-02-28T16:18:11;6.10;45.00
78550;DHT22;68091;52.130;5.570;2023-02-28T16:20:37;6.10;44.50
78550;DHT22;68091;52.130;5.570;2023-02-28T16:23:04;6.10;44.20
78550;DHT22;68091;52.130;5.570;2023-02-28T16:28:00;5.90;44.00
78550;DHT22;68091;52.130;5.570;2023-02-28T16:30:28;5.90;44.80
78550;DHT22;68091;52.130;5.570;2023-02-28T16:32:58;5.80;45.60
78550;DHT22;68091;52.130;5.570;2023-02-28T16:35:24;5.80;45.80
78550;DHT22;68091;52.130;5.570;2023-02-28T16:37:51;5.80;45.60
78550;DHT22;68091;52.130;5.570;2023-02-28T16:40:22;5.80;46.10
78550;DHT22;68091;52.130;5.570;2023-02-28T16:45:44;5.70;47.20
78550;DHT22;68091;52.130;5.570;2023-02-28T16:48:16;5.60;47.30
78550;DHT22;68091;52.130;5.570;2023-02-28T16:50:42;5.50;47.80
78550;DHT22;68091;52.130;5.570;2023-02-28T16:53:11;5.30;48.60
78550;DHT22;68091;52.130;5.570;2023-02-28T16:55:37;5.40;48.30
78550;DHT22;68091;52.130;5.570;2023-02-28T16:58:03;5.30;48.40
78550;DHT22;68091;52.130;5.570;2023-02-28T17:00:31;5.30;48.60
78550;DHT22;68091;52.130;5.570;2023-02-28T17:02:57;5.20;49.30
78550;DHT22;68091;52.130;5.570;2023-02-28T17:05:25;5.20;49.80
78550;DHT22;68091;52.130;5.570;2023-02-28T17:07:55;5.10;49.90
78550;DHT22;68091;52.130;5.570;2023-02-28T17:10:24;5.00;50.20
78550;DHT22;68091;52.130;5.570;2023-02-28T17:12:50;4.80;50.70
78550;DHT22;68091;52.130;5.570;2023-02-28T17:15:18;4.70;51.10
78550;DHT22;68091;52.130;5.570;2023-02-28T17:17:44;4.50;51.60
78550;DHT22;68091;52.130;5.570;2023-02-28T17:20:17;4.50;52.10
78550;DHT22;68091;52.130;5.570;2023-02-28T17:22:42;4.40;52.30
78550;DHT22;68091;52.130;5.570;2023-02-28T17:25:10;4.40;52.50
78550;DHT22;68091;52.130;5.570;2023-02-28T17:27:36;4.50;52.40
78550;DHT22;68091;52.130;5.570;2023-02-28T17:32:41;4.30;52.90
78550;DHT22;68091;52.130;5.570;2023-02-28T17:35:11;4.20;53.10
78550;DHT22;68091;52.130;5.570;2023-02-28T17:37:36;4.10;53.60
78550;DHT22;68091;52.130;5.570;2023-02-28T17:40:03;4.10;53.80
78550;DHT22;68091;52.130;5.570;2023-02-28T17:42:29;3.90;54.10
78550;DHT22;68091;52.130;5.570;2023-02-28T17:44:54;3.90;54.60
78550;DHT22;68091;52.130;5.570;2023-02-28T17:50:18;3.70;55.10
78550;DHT22;68091;52.130;5.570;2023-02-28T17:52:44;3.60;55.50
78550;DHT22;68091;52.130;5.570;2023-02-28T17:55:10;3.50;55.90
78550;DHT22;68091;52.130;5.570;2023-02-28T17:57:36;3.40;56.60
78550;DHT22;68091;52.130;5.570;2023-02-28T18:00:05;3.20;56.90
78550;DHT22;68091;52.130;5.570;2023-02-28T18:02:36;3.20;57.30
78550;DHT22;68091;52.130;5.570;2023-02-28T18:05:11;3.10;57.50
78550;DHT22;68091;52.130;5.570;2023-02-28T18:07:38;3.20;58.20
78550;DHT22;68091;52.130;5.570;2023-02-28T18:10:11;2.90;58.40
78550;DHT22;68091;52.130;5.570;2023-02-28T18:12:38;2.90;58.70
78550;DHT22;68091;52.130;5.570;2023-02-28T18:15:04;2.80;58.90
78550;DHT22;68091;52.130;5.570;2023-02-28T18:17:30;2.80;59.40
78550;DHT22;68091;52.130;5.570;2023-02-28T18:19:56;2.70;59.40
78550;DHT22;68091;52.130;5.570;2023-02-28T18:22:31;2.60;59.70
78550;DHT22;68091;52.130;5.570;2023-02-28T18:24:57;2.70;59.40
78550;DHT22;68091;52.130;5.570;2023-02-28T18:27:23;2.70;59.70
78550;DHT22;68091;52.130;5.570;2023-02-28T18:29:48;2.80;59.90
78550;DHT22;68091;52.130;5.570;2023-02-28T18:32:16;2.70;59.30
78550;DHT22;68091;52.130;5.570;2023-02-28T18:34:42;2.70;59.40
78550;DHT22;68091;52.130;5.570;2023-02-28T18:37:08;2.60;59.80
78550;DHT22;68091;52.130;5.570;2023-02-28T18:39:36;2.50;60.30
78550;DHT22;68091;52.130;5.570;2023-02-28T18:42:02;2.40;60.60
78550;DHT22;68091;52.130;5.570;2023-02-28T18:44:28;2.40;60.80
78550;DHT22;68091;52.130;5.570;2023-02-28T18:46:53;2.30;61.40